createdAt,value
2023-02-22T00:01:50.974Z,22.77
2023-02-22T00:04:21.040Z,21.65
2023-02-22T00:06:48.875Z,21.83
2023-02-22T00:09:20.404Z,21.08
2023-02-22T00:11:48.568Z,20.90
2023-02-22T00:14:15.044Z,20.25
2023-02-22T00:16:41.525Z,21.63
2023-02-22T00:19:08.618Z,19.05
2023-02-22T00:21:34.993Z,19.98
2023-02-22T00:24:16.909Z,20.90
2023-02-22T00:26:43.313Z,18.60
2023-02-22T00:29:09.659Z,19.90
2023-02-22T00:31:39.391Z,18.65
2023-02-22T00:34:05.853Z,19.90
2023-02-22T00:36:32.288Z,21.63
2023-02-22T00:38:58.649Z,19.40
2023-02-22T00:41:25.047Z,19.38
2023-02-22T00:43:51.404Z,20.42
2023-02-22T00:46:17.821Z,20.17
2023-02-22T00:48:44.472Z,19.52
2023-02-22T00:51:10.925Z,21.30
2023-02-22T00:53:37.395Z,19.33
2023-02-22T00:56:04.032Z,18.95
2023-02-22T00:58:30.459Z,20.20
2023-02-22T01:00:56.839Z,19.80
2023-02-22T01:03:23.265Z,18.25
2023-02-22T01:05:49.939Z,22.73
2023-02-22T01:08:17.444Z,20.13
2023-02-22T01:10:44.106Z,19.48
2023-02-22T01:13:12.484Z,20.23
2023-02-22T01:15:42.063Z,20.40
2023-02-22T01:18:09.511Z,21.83
2023-02-22T01:20:36.842Z,20.58
2023-02-22T01:23:06.655Z,20.25
2023-02-22T01:25:34.264Z,20.00
2023-02-22T01:28:01.989Z,21.40
2023-02-22T01:30:30.967Z,21.52
2023-02-22T01:32:57.987Z,21.48
2023-02-22T01:35:28.333Z,19.80
2023-02-22T01:37:55.369Z,18.90
2023-02-22T01:40:32.034Z,19.95
2023-02-22T01:43:02.909Z,22.25
2023-02-22T01:45:34.946Z,19.73
2023-02-22T01:48:04.261Z,19.75
2023-02-22T01:50:34.283Z,19.83
2023-02-22T01:53:02.090Z,20.55
2023-02-22T01:55:28.936Z,19.70
2023-02-22T01:57:55.353Z,19.17
2023-02-22T02:00:24.285Z,19.67
2023-02-22T02:03:02.643Z,20.08
2023-02-22T02:05:31.401Z,20.33
2023-02-22T02:07:59.419Z,19.85
2023-02-22T02:10:26.580Z,19.88
2023-02-22T02:12:53.872Z,20.10
2023-02-22T02:15:31.052Z,19.92
2023-02-22T02:18:10.346Z,20.10
2023-02-22T02:21:07.456Z,21.17
2023-02-22T02:24:05.819Z,19.30
2023-02-22T02:26:44.702Z,18.80
2023-02-22T02:29:47.219Z,19.23
2023-02-22T02:32:36.133Z,20.20
2023-02-22T02:35:11.634Z,18.55
2023-02-22T02:38:12.824Z,18.65
2023-02-22T02:40:47.311Z,18.35
2023-02-22T02:43:39.639Z,17.30
2023-02-22T02:46:25.239Z,16.67
2023-02-22T02:51:27.931Z,16.80
2023-02-22T02:53:55.757Z,16.48
2023-02-22T02:56:23.391Z,16.70
2023-02-22T02:58:52.776Z,17.15
2023-02-22T03:01:24.944Z,16.05
2023-02-22T03:04:05.817Z,17.15
2023-02-22T03:06:50.969Z,16.48
2023-02-22T03:09:35.738Z,16.30
2023-02-22T03:12:15.035Z,18.95
2023-02-22T03:14:55.774Z,16.50
2023-02-22T03:17:32.292Z,15.50
2023-02-22T03:20:06.218Z,14.77
2023-02-22T03:22:48.073Z,17.60
2023-02-22T03:25:20.881Z,17.58
2023-02-22T03:27:54.277Z,15.02
2023-02-22T03:30:37.516Z,15.50
2023-02-22T03:33:09.024Z,15.55
2023-02-22T03:35:44.248Z,14.30
2023-02-22T03:40:44.030Z,16.83
2023-02-22T03:43:15.971Z,16.15
2023-02-22T03:45:44.725Z,13.32
2023-02-22T03:48:20.622Z,14.38
2023-02-22T03:50:49.914Z,15.88
2023-02-22T03:53:18.589Z,16.20
2023-02-22T03:55:51.531Z,13.40
2023-02-22T03:58:20.586Z,17.42
2023-02-22T04:00:47.791Z,14.38
2023-02-22T04:03:14.181Z,15.88
2023-02-22T04:05:40.522Z,16.00
2023-02-22T04:08:06.954Z,17.02
2023-02-22T04:10:33.518Z,18.13
2023-02-22T04:12:59.952Z,15.82
2023-02-22T04:15:26.361Z,16.98
2023-02-22T04:17:52.771Z,17.60
2023-02-22T04:20:19.896Z,15.90
2023-02-22T04:22:47.214Z,16.25
2023-02-22T04:25:14.123Z,18.83
2023-02-22T04:27:40.486Z,17.55
2023-02-22T04:30:07.299Z,18.27
2023-02-22T04:32:33.684Z,18.10
2023-02-22T04:35:00.079Z,18.25
2023-02-22T04:37:26.506Z,18.63
2023-02-22T04:39:52.931Z,16.90
2023-02-22T04:42:19.345Z,18.45
2023-02-22T04:44:45.721Z,17.92
2023-02-22T04:47:12.196Z,19.10
2023-02-22T04:49:39.153Z,17.60
2023-02-22T04:52:05.611Z,17.95
2023-02-22T04:54:32.077Z,19.08
2023-02-22T04:56:58.394Z,19.90
2023-02-22T04:59:24.869Z,18.17
2023-02-22T05:01:51.297Z,17.52
2023-02-22T05:04:17.934Z,17.42
2023-02-22T05:06:44.295Z,18.48
2023-02-22T05:09:10.628Z,17.48
2023-02-22T05:11:37.009Z,19.35
2023-02-22T05:14:03.395Z,17.83
2023-02-22T05:16:29.846Z,18.10
2023-02-22T05:18:56.316Z,17.63
2023-02-22T05:21:22.676Z,17.73
2023-02-22T05:23:49.147Z,17.98
2023-02-22T05:26:15.568Z,18.55
2023-02-22T05:28:41.925Z,16.77
2023-02-22T05:31:08.947Z,16.67
2023-02-22T05:33:35.475Z,17.60
2023-02-22T05:36:02.149Z,16.60
2023-02-22T05:38:28.829Z,16.77
2023-02-22T05:40:55.278Z,15.95
2023-02-22T05:43:21.660Z,16.15
2023-02-22T05:45:48.008Z,15.82
2023-02-22T05:48:14.387Z,16.65
2023-02-22T05:50:40.736Z,15.98
2023-02-22T05:53:07.138Z,16.08
2023-02-22T05:55:33.455Z,14.88
2023-02-22T05:58:01.618Z,14.63
2023-02-22T06:00:30.755Z,14.25
2023-02-22T06:03:06.998Z,13.55
2023-02-22T06:05:33.488Z,14.32
2023-02-22T06:08:00.014Z,14.93
2023-02-22T06:10:27.290Z,15.07
2023-02-22T06:12:55.145Z,14.65
2023-02-22T06:15:23.280Z,14.20
2023-02-22T06:17:50.650Z,14.20
2023-02-22T06:20:20.532Z,15.50
2023-02-22T06:22:48.103Z,14.55
2023-02-22T06:25:16.454Z,14.35
2023-02-22T06:27:42.816Z,13.93
2023-02-22T06:30:13.343Z,15.10
2023-02-22T06:32:39.971Z,14.05
2023-02-22T06:35:06.823Z,14.82
2023-02-22T06:37:33.468Z,14.20
2023-02-22T06:40:04.842Z,12.82
2023-02-22T06:42:31.596Z,13.43
2023-02-22T06:44:58.039Z,13.65
2023-02-22T06:47:24.403Z,14.15
2023-02-22T06:49:58.344Z,14.25
2023-02-22T06:52:25.381Z,12.90
2023-02-22T06:54:51.879Z,12.77
2023-02-22T06:57:18.616Z,13.25
2023-02-22T06:59:45.396Z,13.63
2023-02-22T07:02:12.632Z,13.73
2023-02-22T07:04:41.711Z,13.88
2023-02-22T07:07:09.660Z,13.65
2023-02-22T07:09:36.071Z,13.23
2023-02-22T07:12:02.428Z,12.32
2023-02-22T07:14:28.824Z,13.07
2023-02-22T07:16:55.216Z,12.57
2023-02-22T07:19:21.555Z,12.13
2023-02-22T07:21:48.048Z,13.10
2023-02-22T07:24:14.462Z,12.80
2023-02-22T07:26:42.250Z,12.80
2023-02-22T07:29:08.697Z,12.80
2023-02-22T07:31:36.654Z,12.60
2023-02-22T07:34:03.045Z,13.15
2023-02-22T07:36:29.473Z,12.98
2023-02-22T07:38:55.867Z,12.93
2023-02-22T07:41:23.026Z,12.73
2023-02-22T07:43:49.402Z,13.82
2023-02-22T07:46:15.782Z,12.38
2023-02-22T07:48:42.132Z,13.07
2023-02-22T07:51:09.796Z,12.60
2023-02-22T07:53:36.437Z,13.88
2023-02-22T07:56:05.369Z,13.50
2023-02-22T07:58:32.645Z,13.07
2023-02-22T08:01:02.068Z,13.98
2023-02-22T08:03:36.447Z,14.15
2023-02-22T08:06:04.681Z,14.85
2023-02-22T08:08:31.100Z,15.38
2023-02-22T08:10:58.128Z,14.57
2023-02-22T08:13:24.568Z,12.60
2023-02-22T08:15:53.541Z,14.48
2023-02-22T08:18:21.892Z,13.20
2023-02-22T08:20:49.962Z,12.27
2023-02-22T08:23:17.830Z,12.02
2023-02-22T08:25:44.615Z,12.23
2023-02-22T08:28:13.760Z,11.60
2023-02-22T08:30:42.868Z,11.77
2023-02-22T08:33:10.921Z,11.25
2023-02-22T08:35:37.489Z,11.45
2023-02-22T08:38:06.557Z,11.35
2023-02-22T08:40:36.183Z,10.95
2023-02-22T08:43:04.376Z,11.05
2023-02-22T08:45:30.951Z,10.90
2023-02-22T08:47:58.320Z,11.18
2023-02-22T08:50:27.577Z,11.38
2023-02-22T08:52:56.088Z,10.60
2023-02-22T08:55:30.107Z,11.05
2023-02-22T08:57:56.446Z,10.63
2023-02-22T09:00:26.007Z,11.30
2023-02-22T09:02:53.085Z,9.80
2023-02-22T09:05:20.167Z,10.02
2023-02-22T09:07:47.882Z,9.95
2023-02-22T09:10:17.027Z,9.77
2023-02-22T09:12:43.742Z,10.07
2023-02-22T09:15:11.710Z,10.05
2023-02-22T09:17:38.641Z,10.30
2023-02-22T09:20:07.830Z,10.63
2023-02-22T09:22:34.649Z,9.50
2023-02-22T09:25:11.408Z,10.48
2023-02-22T09:27:43.554Z,10.52
2023-02-22T09:30:23.750Z,11.02
2023-02-22T09:32:53.131Z,10.68
2023-02-22T09:35:20.406Z,10.45
2023-02-22T09:37:46.854Z,11.52
2023-02-22T09:40:25.269Z,10.30
2023-02-22T09:42:56.434Z,10.73
2023-02-22T09:45:28.289Z,10.48
2023-02-22T09:48:15.159Z,10.82
2023-02-22T09:50:49.064Z,11.45
2023-02-22T09:53:17.773Z,11.30
2023-02-22T09:55:49.766Z,11.25
2023-02-22T09:58:25.229Z,11.88
2023-02-22T10:00:59.575Z,10.90
2023-02-22T10:03:50.663Z,11.35
2023-02-22T10:06:21.402Z,10.98
2023-02-22T10:08:50.048Z,10.90
2023-02-22T10:11:37.633Z,11.73
2023-02-22T10:14:27.861Z,10.93
2023-02-22T10:17:17.425Z,10.95
2023-02-22T10:19:43.806Z,10.55
2023-02-22T10:22:44.271Z,10.32
2023-02-22T10:25:17.856Z,9.75
2023-02-22T10:28:03.546Z,9.82
2023-02-22T10:30:34.329Z,9.32
2023-02-22T10:33:22.098Z,9.23
2023-02-22T10:35:51.509Z,8.90
2023-02-22T10:38:20.242Z,8.77
2023-02-22T10:40:54.895Z,7.95
2023-02-22T10:43:21.737Z,8.77
2023-02-22T10:45:48.285Z,8.68
2023-02-22T10:48:18.438Z,8.38
2023-02-22T10:50:46.449Z,9.13
2023-02-22T10:53:15.245Z,8.18
2023-02-22T10:56:32.692Z,8.43
2023-02-22T10:59:04.087Z,7.55
2023-02-22T11:01:33.231Z,7.43
2023-02-22T11:04:21.669Z,7.68
2023-02-22T11:07:06.421Z,7.28
2023-02-22T11:09:52.632Z,7.40
2023-02-22T11:12:29.576Z,7.43
2023-02-22T11:14:56.749Z,7.85
2023-02-22T11:17:31.042Z,6.85
2023-02-22T11:19:59.112Z,7.72
2023-02-22T11:22:38.512Z,7.20
2023-02-22T11:25:07.490Z,8.00
2023-02-22T11:27:43.757Z,6.93
2023-02-22T11:30:25.302Z,7.50
2023-02-22T11:33:00.630Z,6.60
2023-02-22T11:35:38.524Z,6.57
2023-02-22T11:38:23.488Z,7.00
2023-02-22T11:41:07.924Z,5.93
2023-02-22T11:43:34.549Z,6.32
2023-02-22T11:46:08.135Z,6.13
2023-02-22T11:48:39.076Z,6.10
2023-02-22T11:51:17.251Z,6.00
2023-02-22T11:53:54.337Z,6.13
2023-02-22T11:56:37.712Z,5.88
2023-02-22T11:59:21.146Z,5.95
2023-02-22T12:01:55.813Z,5.10
2023-02-22T12:04:43.971Z,5.93
2023-02-22T12:07:22.951Z,5.45
2023-02-22T12:10:13.221Z,5.65
2023-02-22T12:13:21.114Z,6.05
2023-02-22T12:15:52.859Z,5.53
2023-02-22T12:18:34.217Z,5.38
2023-02-22T12:21:05.565Z,5.55
2023-02-22T12:23:55.474Z,5.60
2023-02-22T12:26:31.012Z,6.50
2023-02-22T12:29:05.082Z,6.80
2023-02-22T12:31:40.498Z,6.13
2023-02-22T12:34:26.451Z,5.70
2023-02-22T12:37:27.692Z,5.53
2023-02-22T12:40:26.838Z,5.90
2023-02-22T12:42:56.183Z,5.82
2023-02-22T12:45:29.377Z,5.93
2023-02-22T12:48:21.508Z,6.18
2023-02-22T12:50:52.684Z,6.40
2023-02-22T12:53:30.052Z,6.10
2023-02-22T12:56:05.166Z,6.10
2023-02-22T12:58:49.362Z,6.05
2023-02-22T13:01:20.147Z,5.67
2023-02-22T13:03:47.221Z,6.65
2023-02-22T13:06:40.005Z,5.53
2023-02-22T13:09:18.583Z,5.78
2023-02-22T13:12:01.507Z,6.32
2023-02-22T13:14:57.363Z,6.25
2023-02-22T13:18:01.316Z,6.18
2023-02-22T13:20:40.650Z,5.90
2023-02-22T13:23:25.240Z,6.72
2023-02-22T13:25:59.150Z,6.43
2023-02-22T13:28:50.767Z,6.32
2023-02-22T13:31:42.242Z,6.70
2023-02-22T13:34:18.255Z,5.75
2023-02-22T13:37:12.630Z,6.28
2023-02-22T13:40:02.514Z,6.13
2023-02-22T13:42:49.818Z,7.55
2023-02-22T13:45:37.778Z,6.55
2023-02-22T13:48:32.597Z,6.45
2023-02-22T13:51:30.424Z,6.50
2023-02-22T13:54:07.677Z,6.72
2023-02-22T13:56:34.145Z,6.75
2023-02-22T13:59:03.832Z,6.18
2023-02-22T14:01:47.136Z,6.65
2023-02-22T14:04:21.288Z,6.10
2023-02-22T14:06:47.835Z,6.03
2023-02-22T14:09:50.452Z,6.15
2023-02-22T14:12:34.771Z,7.28
2023-02-22T14:15:18.734Z,6.18
2023-02-22T14:18:04.079Z,5.93
2023-02-22T14:20:35.233Z,6.03
2023-02-22T14:23:23.758Z,6.85
2023-02-22T14:25:51.427Z,6.40
2023-02-22T14:28:37.348Z,6.45
2023-02-22T14:31:19.653Z,6.40
2023-02-22T14:34:04.091Z,6.80
2023-02-22T14:36:50.831Z,7.00
2023-02-22T14:39:37.287Z,6.78
2023-02-22T14:42:15.657Z,6.45
2023-02-22T14:45:14.783Z,6.72
2023-02-22T14:48:03.923Z,6.47
2023-02-22T14:50:45.830Z,6.90
2023-02-22T14:53:12.148Z,6.93
2023-02-22T14:56:36.147Z,6.38
2023-02-22T14:59:13.161Z,7.03
2023-02-22T15:01:52.709Z,7.30
2023-02-22T15:04:28.428Z,6.95
2023-02-22T15:06:57.368Z,6.22
2023-02-22T15:09:36.529Z,6.90
2023-02-22T15:12:02.849Z,5.78
2023-02-22T15:14:37.697Z,7.45
2023-02-22T15:17:09.228Z,7.35
2023-02-22T15:19:40.709Z,7.35
2023-02-22T15:22:19.796Z,7.32
2023-02-22T15:24:58.698Z,7.13
2023-02-22T15:27:26.117Z,7.22
2023-02-22T15:29:59.489Z,6.85
2023-02-22T15:32:33.750Z,7.22
2023-02-22T15:35:17.119Z,7.40
2023-02-22T15:37:44.894Z,7.43
2023-02-22T15:40:21.798Z,7.30
2023-02-22T15:42:55.949Z,7.07
2023-02-22T15:45:25.135Z,7.38
2023-02-22T15:47:54.931Z,6.97
2023-02-22T15:50:26.044Z,7.25
2023-02-22T15:53:02.394Z,6.78
2023-02-22T15:55:34.106Z,7.95
2023-02-22T15:58:08.689Z,7.68
2023-02-22T16:00:37.990Z,7.10
2023-02-22T16:03:33.064Z,9.00
2023-02-22T16:05:59.897Z,8.32
2023-02-22T16:08:52.671Z,8.27
2023-02-22T16:11:29.946Z,8.35
2023-02-22T16:14:05.346Z,7.55
2023-02-22T16:16:37.137Z,8.98
2023-02-22T16:19:22.125Z,7.78
2023-02-22T16:21:54.072Z,8.32
2023-02-22T16:24:36.196Z,8.38
2023-02-22T16:27:10.694Z,7.93
2023-02-22T16:29:37.090Z,8.25
2023-02-22T16:32:03.997Z,9.25
2023-02-22T16:34:30.554Z,8.48
2023-02-22T16:36:57.846Z,8.10
2023-02-22T16:39:27.113Z,8.23
2023-02-22T16:41:56.273Z,8.43
2023-02-22T16:44:25.057Z,8.90
2023-02-22T16:46:57.642Z,8.80
2023-02-22T16:49:26.404Z,8.77
2023-02-22T16:51:55.972Z,9.60
2023-02-22T16:54:29.351Z,8.65
2023-02-22T16:56:57.515Z,8.07
2023-02-22T16:59:23.908Z,8.77
2023-02-22T17:01:50.266Z,8.75
2023-02-22T17:04:21.883Z,8.82
2023-02-22T17:06:48.862Z,9.50
2023-02-22T17:09:15.533Z,8.63
2023-02-22T17:11:43.180Z,9.23
2023-02-22T17:14:13.130Z,9.07
2023-02-22T17:16:39.471Z,9.80
2023-02-22T17:19:15.098Z,9.55
2023-02-22T17:21:41.552Z,9.38
2023-02-22T17:24:14.171Z,10.00
2023-02-22T17:26:41.304Z,9.82
2023-02-22T17:29:07.780Z,9.60
2023-02-22T17:31:34.866Z,9.60
2023-02-22T17:34:03.464Z,9.95
2023-02-22T17:36:31.072Z,9.50
2023-02-22T17:38:57.766Z,9.23
2023-02-22T17:41:24.195Z,10.10
2023-02-22T17:43:51.573Z,10.25
2023-02-22T17:46:20.856Z,10.25
2023-02-22T17:48:48.288Z,10.90
2023-02-22T17:51:14.634Z,10.57
2023-02-22T17:53:41.109Z,9.95
2023-02-22T17:56:10.404Z,10.95
2023-02-22T17:58:37.316Z,10.35
2023-02-22T18:01:04.441Z,10.32
2023-02-22T18:03:31.563Z,10.48
2023-02-22T18:06:00.679Z,10.45
2023-02-22T18:08:29.780Z,10.63
2023-02-22T18:10:56.603Z,10.82
2023-02-22T18:13:25.709Z,11.43
2023-02-22T18:15:52.579Z,11.98
2023-02-22T18:18:19.258Z,12.07
2023-02-22T18:20:47.089Z,11.80
2023-02-22T18:23:16.358Z,11.75
2023-02-22T18:26:07.750Z,11.90
2023-02-22T18:28:36.860Z,10.73
2023-02-22T18:31:15.465Z,10.85
2023-02-22T18:33:43.801Z,11.80
2023-02-22T18:36:14.052Z,13.13
2023-02-22T18:38:42.915Z,13.55
2023-02-22T18:41:11.849Z,12.95
2023-02-22T18:43:38.899Z,13.82
2023-02-22T18:46:11.127Z,11.90
2023-02-22T18:48:38.582Z,12.60
2023-02-22T18:51:07.838Z,13.68
2023-02-22T18:53:34.418Z,13.90
2023-02-22T18:56:12.001Z,13.80
2023-02-22T18:58:39.096Z,14.18
2023-02-22T19:01:07.313Z,15.05
2023-02-22T19:03:37.990Z,14.48
2023-02-22T19:06:08.612Z,15.30
2023-02-22T19:08:39.812Z,15.02
2023-02-22T19:11:12.139Z,14.50
2023-02-22T19:13:38.526Z,15.57
2023-02-22T19:16:07.337Z,15.20
2023-02-22T19:18:33.835Z,15.57
2023-02-22T19:21:02.963Z,15.07
2023-02-22T19:23:34.403Z,15.88
2023-02-22T19:26:03.126Z,16.08
2023-02-22T19:28:33.761Z,15.90
2023-02-22T19:31:21.438Z,16.63
2023-02-22T19:33:52.354Z,16.40
2023-02-22T19:36:20.177Z,17.00
2023-02-22T19:38:46.677Z,16.42
2023-02-22T19:41:22.474Z,16.45
2023-02-22T19:43:51.293Z,16.88
2023-02-22T19:46:18.578Z,16.80
2023-02-22T19:48:45.513Z,17.33
2023-02-22T19:51:14.250Z,17.75
2023-02-22T19:53:42.502Z,17.70
2023-02-22T19:56:16.043Z,17.75
2023-02-22T19:58:44.586Z,17.50
2023-02-22T20:01:16.441Z,17.05
2023-02-22T20:03:43.540Z,17.77
2023-02-22T20:06:11.484Z,18.48
2023-02-22T20:08:41.819Z,17.45
2023-02-22T20:11:10.474Z,18.63
2023-02-22T20:13:38.398Z,19.88
2023-02-22T20:16:05.261Z,18.85
2023-02-22T20:18:31.735Z,18.88
2023-02-22T20:20:58.131Z,18.90
2023-02-22T20:23:24.542Z,20.77
2023-02-22T20:25:55.239Z,19.73
2023-02-22T20:28:26.385Z,20.63
2023-02-22T20:30:52.786Z,20.88
2023-02-22T20:33:20.421Z,21.02
2023-02-22T20:35:47.654Z,21.13
2023-02-22T20:38:14.754Z,21.60
2023-02-22T20:40:42.280Z,22.35
2023-02-22T20:43:09.616Z,21.77
2023-02-22T20:45:39.486Z,22.42
2023-02-22T20:48:06.069Z,22.08
2023-02-22T20:50:34.994Z,22.70
2023-02-22T20:53:01.505Z,22.80
2023-02-22T20:55:27.875Z,22.08
2023-02-22T20:57:54.273Z,24.02
2023-02-22T21:00:20.704Z,22.52
2023-02-22T21:02:47.074Z,23.45
2023-02-22T21:05:13.766Z,23.17
2023-02-22T21:07:40.144Z,23.45
2023-02-22T21:10:06.992Z,25.27
2023-02-22T21:12:34.791Z,26.05
2023-02-22T21:15:01.198Z,26.08
2023-02-22T21:17:30.643Z,27.15
2023-02-22T21:19:58.118Z,25.45
2023-02-22T21:22:25.222Z,25.77
2023-02-22T21:24:51.903Z,24.95
2023-02-22T21:27:18.243Z,26.23
2023-02-22T21:29:44.595Z,26.33
2023-02-22T21:32:12.764Z,27.27
2023-02-22T21:34:39.683Z,27.02
2023-02-22T21:37:08.204Z,28.10
2023-02-22T21:39:35.237Z,28.67
2023-02-22T21:42:02.390Z,27.45
2023-02-22T21:44:29.842Z,27.95
2023-02-22T21:46:56.326Z,27.35
2023-02-22T21:49:23.179Z,28.23
2023-02-22T21:51:51.502Z,28.05
2023-02-22T21:54:18.267Z,29.42
2023-02-22T21:56:44.719Z,30.40
2023-02-22T21:59:13.722Z,28.52
2023-02-22T22:01:58.363Z,27.98
2023-02-22T22:04:29.610Z,29.40
2023-02-22T22:06:58.434Z,28.25
2023-02-22T22:09:28.942Z,30.00
2023-02-22T22:11:58.272Z,27.80
2023-02-22T22:14:26.004Z,28.05
2023-02-22T22:16:58.096Z,28.58
2023-02-22T22:19:25.829Z,29.27
2023-02-22T22:21:53.887Z,31.60
2023-02-22T22:24:22.606Z,30.50
2023-02-22T22:26:54.679Z,29.63
2023-02-22T22:29:23.683Z,30.80
2023-02-22T22:31:51.388Z,30.08
2023-02-22T22:34:18.127Z,30.73
2023-02-22T22:36:44.465Z,30.33
2023-02-22T22:39:13.821Z,31.73
2023-02-22T22:41:42.155Z,30.02
2023-02-22T22:44:09.877Z,30.85
2023-02-22T22:46:39.596Z,30.90
2023-02-22T22:49:11.340Z,31.77
2023-02-22T22:51:38.358Z,30.00
2023-02-22T22:54:09.287Z,30.90
2023-02-22T22:56:37.767Z,31.20
2023-02-22T22:59:09.531Z,32.35
2023-02-22T23:01:40.419Z,31.65
2023-02-22T23:04:11.748Z,30.33
2023-02-22T23:06:41.770Z,32.17
2023-02-22T23:09:18.712Z,33.05
2023-02-22T23:11:51.172Z,33.03
2023-02-22T23:14:23.996Z,31.20
2023-02-22T23:16:53.216Z,33.40
2023-02-22T23:19:20.181Z,32.80
2023-02-22T23:21:48.344Z,34.28
2023-02-22T23:24:16.485Z,33.97
2023-02-22T23:26:50.390Z,34.45
2023-02-22T23:29:19.822Z,33.15
2023-02-22T23:31:48.331Z,34.75
2023-02-22T23:34:17.008Z,34.15
2023-02-22T23:36:46.712Z,34.08
2023-02-22T23:39:15.117Z,34.08
2023-02-22T23:41:42.414Z,36.03
2023-02-22T23:44:17.370Z,35.08
2023-02-22T23:46:47.500Z,36.80
2023-02-22T23:49:19.872Z,35.85
2023-02-22T23:51:47.010Z,37.38
2023-02-22T23:54:19.080Z,36.33
2023-02-22T23:56:58.607Z,36.72
2023-02-22T23:59:26.851Z,36.60
